Grand Canyon National Park Airport
KGCN : now visible

Airfield :











YOU CAN JOIN US ON...

 
LOGIN :

Register | Disclaimer

   EN    FR    IT 

 









Legend :    VFR   Marginal VFR   IFR   Intensive IFR   Very Intensive IFR
Visi :
Ceiling :
>= 8 km
>= 3000ft
5 to 8 km
1000 to 3000 ft
1500m to 5 km
500 to 1000 ft
800 to 1500m
200 to 500 ft
< 800m
< 200 ft
Symbols :   Thunderstorms  Fog  Heavy snow  Heavy precipitations  Wind > 20 kt







- Airport Elevation : 6609 ft
- IATA code : GCN


KGCN - Grand Canyon National Park

CURRENT METAR :
  • 191354Z 00000KT 10SM CLR 15/03 A3023 RMK AO2 SLP127 T01500033

EXPIRED METARs :
  • 191254Z AUTO 00000KT 10SM CLR 09/02 A3021 RMK AO2 SLP131 T00890017
  • 191154Z AUTO 05003KT 10SM CLR 09/02 A3021 RMK AO2 SLP127 T00890017 10150 20078 55001

TAF KGCN
Valid from the 19 at 12:00 until the 20 at 12:00 UTC


191120Z 1912/2012 VRB03KT P6SM SKC
FM191530 21010KT P6SM SKC
FM191700 23013G23KT P6SM FEW110
FM200200 VRB05KT P6SM SKC
KZLA FIR / North America



MET'MAP, your aeronautical weather chart ! - Copyright ORBIFLY December 2007 - Disclaimer

ORBIFLY MET'MAP TEAM :

Programming & Development : Alexandra Zaïnal
Concept & Development : Baudouin d'Aumeries
Co-Development & Prog : Marc-Olivier Méhu
Technical & hardware support : Manuel Goepfert

Contact : metmap@orbifly.com




SOURCES & CREDITS :

   NOAA       Earth
Advisory